createdAt,value
2023-09-15T00:01:04.192Z,68.41
2023-09-15T00:03:36.878Z,68.22
2023-09-15T00:06:05.314Z,68.58
2023-09-15T00:08:35.119Z,68.37
2023-09-15T00:11:03.127Z,68.41
2023-09-15T00:13:33.212Z,68.38
2023-09-15T00:16:01.208Z,68.45
2023-09-15T00:18:29.737Z,68.35
2023-09-15T00:20:57.594Z,68.57
2023-09-15T00:23:25.406Z,68.74
2023-09-15T00:25:55.895Z,68.58
2023-09-15T00:28:23.807Z,68.67
2023-09-15T00:30:51.699Z,68.74
2023-09-15T00:33:20.650Z,68.73
2023-09-15T00:35:48.570Z,68.80
2023-09-15T00:38:16.711Z,68.46
2023-09-15T00:40:44.467Z,68.46
2023-09-15T00:43:12.349Z,68.76
2023-09-15T00:45:40.506Z,68.87
2023-09-15T00:48:09.065Z,68.82
2023-09-15T00:50:37.045Z,68.69
2023-09-15T00:53:11.819Z,68.90
2023-09-15T00:55:39.940Z,69.08
2023-09-15T00:58:13.453Z,68.87
2023-09-15T01:00:43.745Z,68.83
2023-09-15T01:03:13.610Z,68.82
2023-09-15T01:05:43.016Z,68.97
2023-09-15T01:08:11.529Z,68.87
2023-09-15T01:10:39.851Z,68.72
2023-09-15T01:13:08.003Z,68.63
2023-09-15T01:15:47.308Z,68.54
2023-09-15T01:18:25.150Z,68.36
2023-09-15T01:21:15.015Z,68.38
2023-09-15T01:24:00.510Z,68.62
2023-09-15T01:26:53.578Z,68.73
2023-09-15T01:29:46.290Z,68.68
2023-09-15T01:32:17.469Z,68.72
2023-09-15T01:34:52.931Z,68.81
2023-09-15T01:37:23.036Z,68.89
2023-09-15T01:39:54.348Z,68.95
2023-09-15T01:42:24.664Z,68.87
2023-09-15T01:44:53.478Z,68.84
2023-09-15T01:47:23.219Z,68.73
2023-09-15T01:49:52.781Z,68.78
2023-09-15T01:52:23.992Z,68.64
2023-09-15T01:54:54.587Z,68.72
2023-09-15T01:57:23.316Z,68.61
2023-09-15T01:59:51.269Z,68.63
2023-09-15T02:02:19.126Z,68.33
2023-09-15T02:04:47.104Z,68.22
2023-09-15T02:07:14.974Z,68.31
2023-09-15T02:09:42.900Z,68.46
2023-09-15T02:12:10.979Z,68.52
2023-09-15T02:14:38.854Z,68.59
2023-09-15T02:17:07.681Z,68.50
2023-09-15T02:19:35.957Z,68.64
2023-09-15T02:22:05.474Z,68.53
2023-09-15T02:24:33.341Z,68.41
2023-09-15T02:27:01.662Z,68.13
2023-09-15T02:29:31.388Z,67.79
2023-09-15T02:36:18.770Z,68.42
2023-09-15T02:38:46.836Z,68.32
2023-09-15T02:41:14.902Z,68.51
2023-09-15T02:43:43.222Z,68.64
2023-09-15T02:46:11.347Z,68.45
2023-09-15T02:48:39.592Z,68.40
2023-09-15T02:51:08.910Z,68.48
2023-09-15T02:53:36.858Z,68.55
2023-09-15T02:56:06.139Z,68.55
2023-09-15T02:58:37.387Z,68.27
2023-09-15T03:01:15.916Z,68.32
2023-09-15T03:03:50.416Z,68.51
2023-09-15T03:06:18.551Z,68.58
2023-09-15T03:08:47.119Z,68.67
2023-09-15T03:11:18.129Z,68.42
2023-09-15T03:13:46.705Z,68.31
2023-09-15T03:16:15.133Z,68.15
2023-09-15T03:18:48.574Z,68.10
2023-09-15T03:21:20.765Z,68.31
2023-09-15T03:23:50.327Z,68.36
2023-09-15T03:26:18.624Z,68.31
2023-09-15T03:28:49.111Z,68.25
2023-09-15T03:31:17.868Z,68.03
2023-09-15T03:33:45.857Z,67.96
2023-09-15T03:36:13.979Z,67.99
2023-09-15T03:38:45.067Z,68.11
2023-09-15T03:41:13.485Z,68.48
2023-09-15T03:43:41.242Z,69.02
2023-09-15T03:46:10.125Z,69.33
2023-09-15T03:48:38.648Z,68.69
2023-09-15T03:51:06.516Z,68.19
2023-09-15T03:53:34.383Z,68.15
2023-09-15T03:56:02.552Z,68.09
2023-09-15T03:58:30.946Z,67.94
2023-09-15T04:00:58.817Z,68.05
2023-09-15T04:03:27.830Z,68.04
2023-09-15T04:05:55.759Z,68.02
2023-09-15T04:08:23.537Z,68.09
2023-09-15T04:10:51.367Z,68.21
2023-09-15T04:13:19.169Z,68.02
2023-09-15T04:15:46.953Z,67.91
2023-09-15T04:18:14.851Z,68.00
2023-09-15T04:20:46.608Z,67.85
2023-09-15T04:23:16.109Z,67.76
2023-09-15T04:25:44.459Z,67.61
2023-09-15T04:28:14.429Z,67.96
2023-09-15T04:30:43.807Z,68.09
2023-09-15T04:33:16.704Z,68.19
2023-09-15T04:35:45.365Z,68.20
2023-09-15T04:38:13.253Z,68.36
2023-09-15T04:40:42.797Z,68.41
2023-09-15T04:43:10.908Z,68.49
2023-09-15T04:45:39.744Z,68.61
2023-09-15T04:48:08.042Z,68.50
2023-09-15T04:50:39.079Z,68.33
2023-09-15T04:53:08.500Z,68.29
2023-09-15T04:55:36.859Z,68.19
2023-09-15T04:58:05.096Z,68.19
2023-09-15T05:00:35.982Z,68.47
2023-09-15T05:03:05.917Z,68.59
2023-09-15T05:05:33.912Z,68.60
2023-09-15T05:08:01.843Z,68.38
2023-09-15T05:10:30.294Z,68.43
2023-09-15T05:12:58.342Z,68.45
2023-09-15T05:15:26.778Z,68.48
2023-09-15T05:17:54.902Z,68.35
2023-09-15T05:20:22.868Z,68.11
2023-09-15T05:22:50.680Z,68.10
2023-09-15T05:25:18.501Z,68.40
2023-09-15T05:27:46.912Z,68.62
2023-09-15T05:30:16.537Z,68.62
2023-09-15T05:32:44.624Z,68.43
2023-09-15T05:35:12.478Z,68.30
2023-09-15T05:37:40.356Z,68.47
2023-09-15T05:40:09.515Z,68.40
2023-09-15T05:42:37.519Z,68.08
2023-09-15T05:45:05.926Z,68.17
2023-09-15T05:47:34.518Z,68.40
2023-09-15T05:50:05.545Z,68.25
2023-09-15T05:52:33.713Z,68.29
2023-09-15T05:55:01.618Z,68.46
2023-09-15T05:57:29.424Z,67.99
2023-09-15T05:59:57.379Z,67.91
2023-09-15T06:02:25.599Z,67.47
2023-09-15T06:04:54.671Z,67.53
2023-09-15T06:07:22.801Z,67.62
2023-09-15T06:09:50.651Z,67.58
2023-09-15T06:12:18.489Z,67.34
2023-09-15T06:14:46.712Z,67.14
2023-09-15T06:17:14.582Z,67.12
2023-09-15T06:19:42.404Z,66.81
2023-09-15T06:22:10.179Z,66.86
2023-09-15T06:24:38.040Z,66.89
2023-09-15T06:27:05.815Z,67.02
2023-09-15T06:29:35.005Z,66.93
2023-09-15T06:32:03.281Z,66.59
2023-09-15T06:34:31.330Z,66.28
2023-09-15T06:36:59.160Z,66.32
2023-09-15T06:39:27.900Z,66.62
2023-09-15T06:41:55.760Z,66.54
2023-09-15T06:44:24.296Z,66.33
2023-09-15T06:46:52.375Z,66.10
2023-09-15T06:49:23.155Z,66.11
2023-09-15T06:51:51.275Z,65.97
2023-09-15T06:54:19.043Z,65.98
2023-09-15T06:56:46.868Z,65.91
2023-09-15T06:59:14.921Z,65.96
2023-09-15T07:01:42.758Z,65.91
2023-09-15T07:04:14.303Z,65.68
2023-09-15T07:06:42.298Z,65.58
2023-09-15T07:09:10.128Z,65.20
2023-09-15T07:11:38.011Z,65.07
2023-09-15T07:14:05.882Z,64.94
2023-09-15T07:16:34.095Z,64.70
2023-09-15T07:19:01.955Z,64.14
2023-09-15T07:21:29.777Z,63.86
2023-09-15T07:24:00.428Z,63.65
2023-09-15T07:26:29.783Z,62.93
2023-09-15T07:28:57.764Z,62.87
2023-09-15T07:31:25.668Z,62.49
2023-09-15T07:33:53.736Z,62.63
2023-09-15T07:36:21.551Z,62.59
2023-09-15T07:38:49.367Z,62.22
2023-09-15T07:41:17.109Z,61.38
2023-09-15T07:43:44.980Z,61.01
2023-09-15T07:46:16.594Z,60.95
2023-09-15T07:48:44.560Z,60.20
2023-09-15T07:51:13.298Z,60.44
2023-09-15T07:53:41.115Z,60.65
2023-09-15T07:56:08.886Z,60.79
2023-09-15T07:58:36.702Z,61.25
2023-09-15T08:01:06.109Z,61.25
2023-09-15T08:03:33.982Z,61.42
2023-09-15T08:06:03.110Z,61.14
2023-09-15T08:08:31.208Z,60.77
2023-09-15T08:10:58.948Z,60.45
2023-09-15T08:13:27.162Z,60.29
2023-09-15T08:15:56.003Z,60.20
2023-09-15T08:18:24.217Z,59.80
2023-09-15T08:20:52.007Z,58.62
2023-09-15T08:23:19.842Z,58.00
2023-09-15T08:25:47.788Z,57.74
2023-09-15T08:28:15.921Z,56.84
2023-09-15T08:30:47.700Z,57.30
2023-09-15T08:33:15.451Z,56.78
2023-09-15T08:35:43.323Z,55.89
2023-09-15T08:38:12.187Z,55.79
2023-09-15T08:40:48.882Z,55.11
2023-09-15T08:43:17.504Z,55.06
2023-09-15T08:45:48.622Z,54.75
2023-09-15T08:48:23.187Z,54.55
2023-09-15T08:50:52.586Z,53.85
2023-09-15T08:53:20.931Z,54.36
2023-09-15T08:55:48.894Z,54.43
2023-09-15T08:58:16.956Z,54.61
2023-09-15T09:00:45.859Z,54.55
2023-09-15T09:03:16.689Z,54.53
2023-09-15T09:05:48.171Z,54.23
2023-09-15T09:08:17.888Z,53.89
2023-09-15T09:10:50.052Z,53.43
2023-09-15T09:13:33.619Z,53.64
2023-09-15T09:16:12.062Z,53.14
2023-09-15T09:18:39.970Z,52.86
2023-09-15T09:21:07.750Z,52.86
2023-09-15T09:23:35.654Z,52.79
2023-09-15T09:26:12.288Z,52.50
2023-09-15T09:28:40.841Z,52.33
2023-09-15T09:31:12.277Z,51.53
2023-09-15T09:33:43.273Z,50.94
2023-09-15T09:36:17.912Z,50.64
2023-09-15T09:38:48.210Z,49.55
2023-09-15T09:41:27.505Z,49.89
2023-09-15T09:43:56.801Z,48.62
2023-09-15T09:46:25.103Z,47.34
2023-09-15T09:48:53.468Z,46.16
2023-09-15T09:51:22.341Z,45.15
2023-09-15T09:53:54.095Z,45.13
2023-09-15T09:56:23.848Z,44.84
2023-09-15T09:58:51.607Z,44.56
2023-09-15T10:01:19.477Z,43.99
2023-09-15T10:03:47.753Z,43.26
2023-09-15T10:06:15.920Z,42.83
2023-09-15T10:08:46.974Z,42.44
2023-09-15T10:11:15.508Z,42.34
2023-09-15T10:13:43.614Z,40.67
2023-09-15T10:20:31.919Z,40.94
2023-09-15T10:23:00.416Z,40.94
2023-09-15T10:25:28.282Z,41.05
2023-09-15T10:27:56.330Z,40.37
2023-09-15T10:30:24.366Z,40.99
2023-09-15T10:32:52.293Z,40.67
2023-09-15T10:35:20.277Z,40.28
2023-09-15T10:37:48.560Z,40.69
2023-09-15T10:40:16.355Z,41.13
2023-09-15T10:42:49.631Z,41.74
2023-09-15T10:45:18.000Z,42.55
2023-09-15T10:47:56.743Z,43.11
2023-09-15T10:50:34.997Z,43.48
2023-09-15T10:53:10.258Z,43.89
2023-09-15T10:55:38.772Z,44.27
2023-09-15T10:58:06.641Z,44.47
2023-09-15T11:00:34.966Z,44.58
2023-09-15T11:03:05.175Z,43.58
2023-09-15T11:05:33.829Z,42.45
2023-09-15T11:08:02.167Z,41.32
2023-09-15T11:10:33.168Z,40.18
2023-09-15T11:13:04.975Z,39.86
2023-09-15T11:15:34.442Z,40.45
2023-09-15T11:18:03.347Z,40.65
2023-09-15T11:20:31.565Z,40.79
2023-09-15T11:22:59.451Z,40.44
2023-09-15T11:25:27.236Z,40.10
2023-09-15T11:27:55.420Z,39.15
2023-09-15T11:30:27.742Z,37.70
2023-09-15T11:32:56.357Z,37.54
2023-09-15T11:35:25.648Z,37.57
2023-09-15T11:37:54.226Z,37.21
2023-09-15T11:40:23.217Z,36.94
2023-09-15T11:43:00.796Z,37.32
2023-09-15T11:45:30.147Z,37.04
2023-09-15T11:48:00.279Z,37.21
2023-09-15T11:50:29.687Z,37.90
2023-09-15T11:52:57.586Z,38.73
2023-09-15T11:55:27.003Z,38.79
2023-09-15T11:58:00.114Z,39.15
2023-09-15T12:00:31.681Z,39.33
2023-09-15T12:03:00.729Z,39.36
2023-09-15T12:05:29.674Z,39.75
2023-09-15T12:07:58.907Z,39.90
2023-09-15T12:10:26.800Z,40.14
2023-09-15T12:12:58.559Z,39.57
2023-09-15T12:15:27.676Z,39.77
2023-09-15T12:17:57.410Z,40.39
2023-09-15T12:20:25.720Z,40.69
2023-09-15T12:22:53.969Z,41.08
2023-09-15T12:25:22.362Z,41.46
2023-09-15T12:27:50.225Z,41.59
2023-09-15T12:30:19.815Z,41.06
2023-09-15T12:32:48.940Z,40.86
2023-09-15T12:35:16.993Z,40.46
2023-09-15T12:37:46.364Z,40.61
2023-09-15T12:40:15.807Z,40.10
2023-09-15T12:42:45.061Z,40.21
2023-09-15T12:45:15.491Z,40.03
2023-09-15T12:47:43.490Z,40.04
2023-09-15T12:50:13.565Z,39.62
2023-09-15T12:52:41.825Z,39.99
2023-09-15T12:55:09.911Z,39.97
2023-09-15T12:57:37.745Z,39.92
2023-09-15T13:00:07.706Z,39.71
2023-09-15T13:02:35.978Z,40.20
2023-09-15T13:05:06.234Z,40.61
2023-09-15T13:07:37.937Z,40.68
2023-09-15T13:10:06.649Z,41.16
2023-09-15T13:12:34.654Z,41.28
2023-09-15T13:15:04.496Z,41.59
2023-09-15T13:17:32.320Z,41.46
2023-09-15T13:20:03.045Z,40.76
2023-09-15T13:22:30.888Z,39.96
2023-09-15T13:24:58.647Z,39.03
2023-09-15T13:27:26.942Z,38.90
2023-09-15T13:29:58.590Z,38.41
2023-09-15T13:32:27.749Z,38.29
2023-09-15T13:34:55.917Z,37.74
2023-09-15T13:37:24.059Z,37.36
2023-09-15T13:39:51.907Z,37.38
2023-09-15T13:42:33.916Z,37.38
2023-09-15T13:45:03.093Z,37.38
2023-09-15T13:47:35.287Z,37.75
2023-09-15T13:50:06.844Z,38.02
2023-09-15T13:52:34.815Z,38.54
2023-09-15T13:55:03.405Z,38.92
2023-09-15T13:57:31.275Z,39.03
2023-09-15T13:59:59.191Z,39.58
2023-09-15T14:02:27.622Z,39.70
2023-09-15T14:04:56.248Z,39.92
2023-09-15T14:07:25.227Z,39.96
2023-09-15T14:09:53.051Z,39.94
2023-09-15T14:12:20.994Z,40.22
2023-09-15T14:14:48.907Z,40.19
2023-09-15T14:17:16.683Z,40.67
2023-09-15T14:19:44.576Z,40.95
2023-09-15T14:22:12.428Z,41.30
2023-09-15T14:24:40.452Z,41.77
2023-09-15T14:27:08.344Z,41.88
2023-09-15T14:29:36.925Z,42.12
2023-09-15T14:32:04.961Z,42.30
2023-09-15T14:34:33.100Z,42.47
2023-09-15T14:37:01.605Z,42.52
2023-09-15T14:39:29.717Z,42.48
2023-09-15T14:41:58.212Z,42.40
2023-09-15T14:44:26.042Z,42.40
2023-09-15T14:46:55.347Z,41.97
2023-09-15T14:49:27.156Z,41.40
2023-09-15T14:51:55.290Z,40.86
2023-09-15T14:54:23.149Z,40.83
2023-09-15T14:56:54.087Z,40.49
2023-09-15T14:59:22.102Z,40.39
2023-09-15T15:01:49.945Z,40.89
2023-09-15T15:04:17.884Z,40.91
2023-09-15T15:06:45.855Z,40.65
2023-09-15T15:09:15.646Z,40.09
2023-09-15T15:11:45.363Z,39.69
2023-09-15T15:14:13.407Z,39.51
2023-09-15T15:16:41.286Z,39.26
2023-09-15T15:19:09.339Z,38.67
2023-09-15T15:21:37.509Z,38.58
2023-09-15T15:24:05.336Z,38.60
2023-09-15T15:26:33.180Z,37.61
2023-09-15T15:29:01.082Z,37.92
2023-09-15T15:31:28.997Z,37.90
2023-09-15T15:33:57.814Z,38.40
2023-09-15T15:36:27.770Z,38.29
2023-09-15T15:38:55.606Z,38.30
2023-09-15T15:41:23.556Z,38.91
2023-09-15T15:43:51.676Z,39.13
2023-09-15T15:46:20.979Z,39.74
2023-09-15T15:48:49.333Z,39.70
2023-09-15T15:51:17.769Z,39.95
2023-09-15T15:53:45.687Z,40.36
2023-09-15T15:56:13.592Z,40.47
2023-09-15T15:58:41.596Z,40.74
2023-09-15T16:01:09.754Z,40.97
2023-09-15T16:03:38.085Z,40.82
2023-09-15T16:06:06.274Z,41.03
2023-09-15T16:08:34.134Z,41.29
2023-09-15T16:11:03.490Z,41.32
2023-09-15T16:13:35.812Z,41.63
2023-09-15T16:16:05.589Z,41.86
2023-09-15T16:18:33.650Z,42.05
2023-09-15T16:21:01.669Z,41.99
2023-09-15T16:23:29.552Z,40.71
2023-09-15T16:25:59.332Z,39.96
2023-09-15T16:28:29.323Z,39.92
2023-09-15T16:30:57.262Z,40.21
2023-09-15T16:33:25.363Z,40.69
2023-09-15T16:36:06.878Z,40.91
2023-09-15T16:38:34.815Z,41.41
2023-09-15T16:41:02.702Z,41.95
2023-09-15T16:43:32.705Z,42.36
2023-09-15T16:46:00.744Z,42.76
2023-09-15T16:48:30.924Z,43.27
2023-09-15T16:50:59.183Z,43.62
2023-09-15T16:53:26.982Z,43.93
2023-09-15T16:55:55.626Z,44.01
2023-09-15T16:58:23.551Z,44.51
2023-09-15T17:00:55.073Z,44.55
2023-09-15T17:03:23.093Z,44.92
2023-09-15T17:05:51.460Z,45.31
2023-09-15T17:08:20.057Z,45.72
2023-09-15T17:10:48.250Z,45.99
2023-09-15T17:13:16.084Z,46.48
2023-09-15T17:15:49.072Z,46.97
2023-09-15T17:18:17.047Z,47.27
2023-09-15T17:20:44.950Z,47.76
2023-09-15T17:23:12.715Z,48.09
2023-09-15T17:25:40.527Z,48.25
2023-09-15T17:28:08.521Z,48.52
2023-09-15T17:30:36.357Z,48.83
2023-09-15T17:33:04.662Z,49.06
2023-09-15T17:35:32.533Z,49.14
2023-09-15T17:38:00.324Z,49.31
2023-09-15T17:40:28.062Z,49.74
2023-09-15T17:42:55.972Z,49.88
2023-09-15T17:45:24.973Z,50.00
2023-09-15T17:47:53.041Z,50.24
2023-09-15T17:50:21.078Z,50.67
2023-09-15T17:52:50.756Z,51.03
2023-09-15T17:55:20.374Z,51.34
2023-09-15T17:57:49.915Z,51.95
2023-09-15T18:00:20.547Z,52.29
2023-09-15T18:02:48.742Z,52.69
2023-09-15T18:05:17.070Z,52.56
2023-09-15T18:07:45.140Z,52.65
2023-09-15T18:10:13.108Z,52.56
2023-09-15T18:12:40.906Z,52.74
2023-09-15T18:15:11.574Z,52.61
2023-09-15T18:17:39.709Z,52.98
2023-09-15T18:20:10.537Z,52.54
2023-09-15T18:22:39.935Z,52.32
2023-09-15T18:25:09.840Z,52.54
2023-09-15T18:27:39.435Z,52.54
2023-09-15T18:30:07.931Z,52.52
2023-09-15T18:32:37.431Z,52.33
2023-09-15T18:35:06.195Z,52.23
2023-09-15T18:37:34.459Z,52.39
2023-09-15T18:40:02.709Z,52.38
2023-09-15T18:42:30.671Z,52.42
2023-09-15T18:44:58.402Z,52.48
2023-09-15T18:47:26.210Z,52.49
2023-09-15T18:49:54.267Z,52.35
2023-09-15T18:52:22.119Z,52.19
2023-09-15T18:54:49.971Z,52.21
2023-09-15T18:57:17.955Z,52.26
2023-09-15T18:59:46.496Z,51.98
2023-09-15T19:02:15.464Z,52.01
2023-09-15T19:04:43.263Z,51.76
2023-09-15T19:07:11.169Z,51.65
2023-09-15T19:09:39.016Z,51.54
2023-09-15T19:12:08.410Z,51.64
2023-09-15T19:14:37.713Z,51.60
2023-09-15T19:17:05.601Z,51.15
2023-09-15T19:19:33.506Z,51.18
2023-09-15T19:22:01.378Z,51.04
2023-09-15T19:24:30.922Z,50.91
2023-09-15T19:26:58.823Z,51.07
2023-09-15T19:29:27.819Z,51.48
2023-09-15T19:31:55.617Z,51.24
2023-09-15T19:34:23.693Z,51.01
2023-09-15T19:36:51.656Z,51.37
2023-09-15T19:39:19.480Z,51.73
2023-09-15T19:41:47.258Z,52.09
2023-09-15T19:44:15.581Z,52.31
2023-09-15T19:46:43.486Z,52.80
2023-09-15T19:49:11.311Z,53.02
2023-09-15T19:51:39.444Z,52.53
2023-09-15T19:54:07.423Z,52.69
2023-09-15T19:56:35.252Z,52.58
2023-09-15T19:59:03.055Z,52.64
2023-09-15T20:01:30.869Z,52.80
2023-09-15T20:03:58.756Z,53.14
2023-09-15T20:06:26.633Z,53.26
2023-09-15T20:08:59.507Z,53.43
2023-09-15T20:11:27.451Z,53.71
2023-09-15T20:13:57.662Z,53.71
2023-09-15T20:16:29.436Z,53.81
2023-09-15T20:18:57.415Z,53.80
2023-09-15T20:21:28.517Z,53.86
2023-09-15T20:23:59.379Z,53.93
2023-09-15T20:26:27.300Z,53.94
2023-09-15T20:28:57.122Z,53.91
2023-09-15T20:31:25.466Z,53.87
2023-09-15T20:33:53.225Z,53.49
2023-09-15T20:36:21.493Z,53.58
2023-09-15T20:38:49.536Z,53.49
2023-09-15T20:41:17.894Z,53.43
2023-09-15T20:43:45.654Z,53.55
2023-09-15T20:46:13.746Z,53.51
2023-09-15T20:48:44.339Z,53.54
2023-09-15T20:51:12.463Z,53.51
2023-09-15T20:53:40.307Z,53.51
2023-09-15T20:56:08.114Z,53.52
2023-09-15T20:58:37.679Z,53.51
2023-09-15T21:01:07.768Z,53.93
2023-09-15T21:03:37.047Z,53.84
2023-09-15T21:06:06.382Z,53.77
2023-09-15T21:08:34.156Z,53.91
2023-09-15T21:11:02.257Z,53.90
2023-09-15T21:13:30.228Z,54.05
2023-09-15T21:15:58.997Z,54.07
2023-09-15T21:18:26.964Z,54.25
2023-09-15T21:20:54.911Z,54.25
2023-09-15T21:23:22.681Z,54.26
2023-09-15T21:25:50.443Z,54.39
2023-09-15T21:28:18.590Z,54.58
2023-09-15T21:30:47.857Z,54.60
2023-09-15T21:33:16.646Z,54.75
2023-09-15T21:35:46.717Z,54.92
2023-09-15T21:38:15.532Z,54.99
2023-09-15T21:40:43.405Z,55.16
2023-09-15T21:43:11.237Z,55.24
2023-09-15T21:45:39.202Z,55.31
2023-09-15T21:48:07.604Z,55.46
2023-09-15T21:50:35.480Z,55.37
2023-09-15T21:53:05.754Z,55.48
2023-09-15T21:55:34.426Z,55.63
2023-09-15T21:58:02.293Z,55.52
2023-09-15T22:00:36.401Z,55.40
2023-09-15T22:03:04.705Z,55.44
2023-09-15T22:05:33.261Z,55.21
2023-09-15T22:08:03.830Z,55.24
2023-09-15T22:10:32.132Z,55.32
2023-09-15T22:13:00.010Z,55.22
2023-09-15T22:15:28.076Z,55.15
2023-09-15T22:17:55.930Z,55.18
2023-09-15T22:20:27.837Z,55.20
2023-09-15T22:22:56.791Z,55.22
2023-09-15T22:25:28.257Z,55.26
2023-09-15T22:27:56.177Z,55.37
2023-09-15T22:30:24.072Z,55.51
2023-09-15T22:32:52.832Z,55.57
2023-09-15T22:35:21.760Z,55.67
2023-09-15T22:37:50.487Z,55.75
2023-09-15T22:40:18.462Z,55.94
2023-09-15T22:42:46.253Z,56.13
2023-09-15T22:45:24.819Z,56.19
2023-09-15T22:47:59.146Z,56.38
2023-09-15T22:50:27.447Z,56.66
2023-09-15T22:52:55.289Z,56.80
2023-09-15T22:55:24.564Z,57.04
2023-09-15T22:57:52.435Z,57.23
2023-09-15T23:00:20.430Z,57.09
2023-09-15T23:02:50.821Z,56.96
2023-09-15T23:05:20.830Z,57.16
2023-09-15T23:07:48.704Z,57.34
2023-09-15T23:10:17.545Z,57.43
2023-09-15T23:12:45.551Z,57.61
2023-09-15T23:15:13.946Z,57.70
2023-09-15T23:17:41.838Z,57.91
2023-09-15T23:20:09.840Z,57.83
2023-09-15T23:22:37.719Z,58.07
2023-09-15T23:25:06.229Z,58.32
2023-09-15T23:27:35.325Z,58.34
2023-09-15T23:30:04.618Z,58.36
2023-09-15T23:32:33.326Z,58.52
2023-09-15T23:35:01.907Z,58.67
2023-09-15T23:37:30.085Z,58.64
2023-09-15T23:39:58.177Z,58.69
2023-09-15T23:42:26.155Z,58.74
2023-09-15T23:44:54.041Z,58.92
2023-09-15T23:47:21.906Z,59.15
2023-09-15T23:49:49.799Z,59.09
2023-09-15T23:52:17.566Z,59.17
2023-09-15T23:54:45.433Z,59.16
2023-09-15T23:57:13.332Z,59.24
2023-09-15T23:59:41.188Z,59.36
